Time;durP1;ratioP1;P1;durP2;ratioP2;P2;SDS_P1;SDS_P2;PMS_P1;PMS_P2;Temp;Humidity;BMP_temperature;BMP_pressure;BME280_temperature;BME280_humidity;BME280_pressure;Samples;Min_cycle;Max_cycle;Signal;HPM_P1;HPM_P2
2022/11/21 00:00:51;;;;;;;10.93;6.50;;;12.50;96.50;;;;;;5064692;28;20214;-78
2022/11/21 00:03:20;;;;;;;13.10;6.17;;;12.50;96.60;;;;;;5066267;28;20191;-79
2022/11/21 00:05:50;;;;;;;13.60;6.10;;;12.50;96.60;;;;;;5066958;28;20191;-80
2022/11/21 00:08:22;;;;;;;13.87;6.37;;;12.50;96.60;;;;;;5068300;28;20194;-79
2022/11/21 00:10:50;;;;;;;14.50;5.90;;;12.40;96.60;;;;;;5058185;28;20200;-78
2022/11/21 00:13:20;;;;;;;13.83;6.53;;;12.50;96.70;;;;;;5057696;28;20259;-79
2022/11/21 00:15:50;;;;;;;12.03;5.87;;;12.50;96.60;;;;;;5061230;28;20240;-78
2022/11/21 00:18:18;;;;;;;10.90;5.53;;;12.40;96.60;;;;;;5058165;28;20225;-79
2022/11/21 00:20:46;;;;;;;10.83;5.40;;;12.40;96.60;;;;;;5058761;28;20317;-77
2022/11/21 00:23:15;;;;;;;14.43;6.20;;;12.40;96.70;;;;;;5065366;28;20224;-79
2022/11/21 00:25:43;;;;;;;12.87;5.67;;;12.40;96.70;;;;;;5064247;28;20621;-78
2022/11/21 00:28:12;;;;;;;11.63;5.40;;;12.30;96.70;;;;;;5065379;28;20969;-78
2022/11/21 00:30:41;;;;;;;9.97;5.47;;;12.30;96.70;;;;;;5061639;28;20593;-79
2022/11/21 00:33:11;;;;;;;11.13;5.37;;;12.30;96.80;;;;;;5061610;28;20194;-80
2022/11/21 00:35:41;;;;;;;10.83;5.10;;;12.30;96.70;;;;;;5060984;28;20260;-82
2022/11/21 00:38:09;;;;;;;8.83;4.83;;;12.40;96.70;;;;;;5062493;28;20633;-79
2022/11/21 00:40:37;;;;;;;11.47;5.03;;;12.40;96.70;;;;;;5062424;28;20299;-79
2022/11/21 00:43:06;;;;;;;9.93;5.30;;;12.50;96.70;;;;;;5056546;28;20614;-79
2022/11/21 00:45:34;;;;;;;9.17;4.60;;;12.40;96.50;;;;;;5057885;28;20572;-80
2022/11/21 00:48:06;;;;;;;8.10;4.20;;;12.50;96.60;;;;;;5060749;28;20207;-80
2022/11/21 00:50:39;;;;;;;8.00;4.30;;;12.50;96.40;;;;;;5059489;28;20720;-82
2022/11/21 00:53:07;;;;;;;8.00;4.23;;;12.50;96.20;;;;;;5062059;28;20194;-79
2022/11/21 00:55:36;;;;;;;8.97;4.33;;;12.40;96.20;;;;;;5068256;28;20222;-81
2022/11/21 00:58:04;;;;;;;6.60;3.60;;;12.30;96.10;;;;;;5067617;28;20198;-81
2022/11/21 01:00:34;;;;;;;7.37;4.17;;;12.30;96.10;;;;;;5067082;28;20682;-82
2022/11/21 01:03:02;;;;;;;7.97;3.70;;;12.30;96.10;;;;;;5066996;28;20230;-80
2022/11/21 01:05:32;;;;;;;6.17;3.60;;;12.20;96.10;;;;;;5067004;28;20251;-80
2022/11/21 01:08:02;;;;;;;6.60;3.20;;;12.20;96.10;;;;;;5068142;28;20226;-79
2022/11/21 01:10:30;;;;;;;6.60;3.23;;;12.20;96.10;;;;;;5063659;28;20195;-81
2022/11/21 01:12:59;;;;;;;4.77;2.87;;;12.10;95.70;;;;;;5067490;28;20206;-82
2022/11/21 01:15:27;;;;;;;4.83;2.73;;;12.10;95.60;;;;;;5063752;28;20191;-79
2022/11/21 01:17:55;;;;;;;4.73;2.60;;;12.00;95.60;;;;;;5060779;28;20276;-80
2022/11/21 01:20:24;;;;;;;4.47;2.57;;;12.00;95.60;;;;;;5064469;28;20260;-80
2022/11/21 01:22:52;;;;;;;4.80;2.83;;;12.00;95.50;;;;;;5065475;28;20194;-81
2022/11/21 01:25:22;;;;;;;4.37;1.93;;;11.90;95.50;;;;;;5061044;28;20734;-81
2022/11/21 01:27:50;;;;;;;4.40;2.10;;;11.80;95.60;;;;;;5065919;28;20682;-81
2022/11/21 01:30:18;;;;;;;3.63;2.70;;;11.80;95.70;;;;;;5064370;28;20190;-80
2022/11/21 01:32:49;;;;;;;4.50;2.27;;;11.80;95.80;;;;;;5059906;28;20256;-83
2022/11/21 01:35:18;;;;;;;3.03;1.70;;;11.80;95.90;;;;;;5065585;28;20649;-79
2022/11/21 01:37:48;;;;;;;2.20;1.50;;;11.70;96.00;;;;;;5063196;28;20242;-87
2022/11/21 01:40:19;;;;;;;3.20;1.87;;;11.60;95.90;;;;;;5060981;28;20213;-81
2022/11/21 01:42:57;;;;;;;1.33;1.10;;;11.60;96.00;;;;;;5064796;28;20206;-82
2022/11/21 01:45:54;;;;;;;1.90;1.10;;;11.50;95.90;;;;;;5062374;28;20248;-80
2022/11/21 01:48:26;;;;;;;2.60;1.20;;;11.50;96.10;;;;;;5064648;28;20609;-82
2022/11/21 01:50:56;;;;;;;1.87;1.23;;;11.50;96.10;;;;;;5063244;28;20295;-81
2022/11/21 01:53:25;;;;;;;4.10;0.97;;;11.40;96.10;;;;;;5064178;28;20611;-80
2022/11/21 01:55:54;;;;;;;1.73;0.80;;;11.40;96.00;;;;;;5065121;28;20202;-82
2022/11/21 01:58:25;;;;;;;2.53;0.80;;;11.40;96.00;;;;;;5062912;28;20194;-82
2022/11/21 02:00:54;;;;;;;1.30;0.90;;;11.30;96.00;;;;;;5045331;28;20225;-82
2022/11/21 02:03:28;;;;;;;1.37;0.97;;;11.30;96.00;;;;;;5068603;28;20565;-81
2022/11/21 02:05:59;;;;;;;0.73;0.67;;;11.20;95.90;;;;;;5063732;28;20203;-83
2022/11/21 02:08:28;;;;;;;1.20;0.60;;;11.10;95.90;;;;;;5066898;28;20221;-81
2022/11/21 02:11:04;;;;;;;1.53;0.90;;;11.10;96.00;;;;;;5062037;28;20202;-79
2022/11/21 02:13:33;;;;;;;2.30;1.00;;;11.10;96.10;;;;;;5066387;28;20190;-83
2022/11/21 02:16:02;;;;;;;1.73;1.10;;;11.10;96.10;;;;;;5066831;28;20233;-85
2022/11/21 02:18:37;;;;;;;1.87;0.90;;;11.10;96.10;;;;;;5066493;28;20198;-83
2022/11/21 02:21:20;;;;;;;1.40;0.90;;;11.10;96.10;;;;;;5066244;28;20225;-83
2022/11/21 02:23:57;;;;;;;0.83;0.73;;;11.10;96.20;;;;;;5065951;28;20197;-81
2022/11/21 02:26:31;;;;;;;2.50;1.00;;;11.20;96.20;;;;;;5062015;28;20191;-80
2022/11/21 02:28:59;;;;;;;1.63;1.10;;;11.30;96.20;;;;;;5064800;28;20260;-82
2022/11/21 02:31:40;;;;;;;2.93;0.90;;;11.30;96.20;;;;;;5066007;28;20191;-83
2022/11/21 02:34:23;;;;;;;2.63;1.23;;;11.40;96.40;;;;;;5049440;28;20249;-85
2022/11/21 02:36:55;;;;;;;1.30;0.90;;;11.40;96.30;;;;;;5069714;28;20208;-82
2022/11/21 02:39:32;;;;;;;2.50;1.27;;;11.40;96.30;;;;;;5069535;28;20281;-82
2022/11/21 02:42:09;;;;;;;2.10;0.80;;;11.50;96.30;;;;;;5063826;28;20686;-80
2022/11/21 02:44:45;;;;;;;3.53;1.20;;;11.50;96.30;;;;;;5061305;28;20650;-82
2022/11/21 02:47:16;;;;;;;3.60;0.83;;;11.60;96.50;;;;;;5071410;28;20273;-80
2022/11/21 02:49:49;;;;;;;2.50;0.90;;;11.60;96.50;;;;;;5066534;28;20199;-81
2022/11/21 02:52:19;;;;;;;1.27;0.70;;;11.60;96.50;;;;;;5058764;28;20329;-82
2022/11/21 02:54:48;;;;;;;1.67;0.60;;;11.70;96.70;;;;;;5064595;28;20264;-82
2022/11/21 02:57:17;;;;;;;3.33;0.50;;;11.70;96.70;;;;;;5069713;28;20615;-80
2022/11/21 02:59:46;;;;;;;0.57;0.40;;;11.80;96.70;;;;;;5069780;28;20770;-80
2022/11/21 03:02:14;;;;;;;0.80;0.40;;;11.70;96.70;;;;;;5065099;28;20275;-85
2022/11/21 03:04:44;;;;;;;0.80;0.57;;;11.70;96.70;;;;;;5066232;28;20708;-84
2022/11/21 03:07:12;;;;;;;0.40;0.40;;;11.80;96.60;;;;;;5066823;28;20206;-82
2022/11/21 03:09:41;;;;;;;0.50;0.50;;;11.80;96.40;;;;;;5065125;28;20223;-83
2022/11/21 03:12:10;;;;;;;0.60;0.60;;;11.90;96.40;;;;;;5067743;28;20199;-83
2022/11/21 03:14:41;;;;;;;0.40;0.40;;;11.90;96.40;;;;;;5063569;28;20608;-82
2022/11/21 03:17:09;;;;;;;1.03;0.60;;;11.90;96.20;;;;;;5071123;28;20195;-81
2022/11/21 03:19:37;;;;;;;0.50;0.40;;;11.80;96.10;;;;;;5069787;28;20613;-83
2022/11/21 03:22:06;;;;;;;1.10;0.50;;;11.80;96.00;;;;;;5064638;28;20230;-81
2022/11/21 03:24:34;;;;;;;0.40;0.40;;;11.90;95.80;;;;;;5066704;28;20194;-80
2022/11/21 03:27:02;;;;;;;0.70;0.60;;;11.90;95.90;;;;;;5067697;28;20671;-79
2022/11/21 03:29:31;;;;;;;1.00;0.60;;;11.80;95.80;;;;;;5061494;28;20241;-79
2022/11/21 03:32:01;;;;;;;1.30;0.60;;;11.90;95.80;;;;;;5066836;28;20190;-82
2022/11/21 03:34:32;;;;;;;0.70;0.60;;;11.90;95.60;;;;;;5068796;28;20252;-80
2022/11/21 03:37:00;;;;;;;1.40;0.70;;;11.90;95.40;;;;;;5064483;28;20195;-81
2022/11/21 03:39:30;;;;;;;1.60;0.60;;;11.90;95.20;;;;;;5065263;28;20729;-80
2022/11/21 03:41:58;;;;;;;0.70;0.57;;;11.90;94.90;;;;;;5066497;28;20207;-81
2022/11/21 03:44:27;;;;;;;1.87;0.90;;;11.80;94.60;;;;;;5059603;28;20759;-76
2022/11/21 03:46:55;;;;;;;1.70;1.00;;;11.80;94.30;;;;;;5064218;28;20198;-77
2022/11/21 03:49:25;;;;;;;1.73;0.73;;;11.70;93.80;;;;;;5066159;28;20271;-81
2022/11/21 03:51:56;;;;;;;0.90;0.70;;;11.70;93.80;;;;;;5070107;28;20198;-82
2022/11/21 03:54:24;;;;;;;1.07;0.63;;;11.70;93.60;;;;;;5065874;28;20627;-79
2022/11/21 03:56:53;;;;;;;4.77;1.00;;;11.70;93.50;;;;;;5064354;28;20249;-81
2022/11/21 03:59:21;;;;;;;1.90;1.00;;;11.60;93.30;;;;;;5069282;28;20216;-80
2022/11/21 04:01:50;;;;;;;4.30;1.40;;;11.60;93.20;;;;;;5069449;28;20218;-80
2022/11/21 04:04:18;;;;;;;2.37;1.10;;;11.50;92.90;;;;;;5068599;28;20240;-75
2022/11/21 04:06:48;;;;;;;1.67;0.97;;;11.40;93.00;;;;;;5069162;28;20259;-76
2022/11/21 04:09:16;;;;;;;2.80;1.37;;;11.40;93.00;;;;;;5064293;28;20222;-79
2022/11/21 04:11:44;;;;;;;2.30;0.93;;;11.30;92.90;;;;;;5068613;28;20195;-77
2022/11/21 04:14:12;;;;;;;2.27;1.00;;;11.20;93.00;;;;;;5064968;28;20336;-80
2022/11/21 04:16:41;;;;;;;1.83;1.10;;;11.10;93.30;;;;;;5064257;28;20301;-80
2022/11/21 04:19:09;;;;;;;2.93;1.43;;;11.10;93.80;;;;;;5065362;28;20203;-77
2022/11/21 04:21:38;;;;;;;6.10;1.33;;;11.10;93.90;;;;;;5056592;28;20279;-79
2022/11/21 04:24:08;;;;;;;3.23;1.20;;;11.00;94.50;;;;;;5071900;28;20229;-80
2022/11/21 04:26:42;;;;;;;4.30;1.00;;;11.10;94.50;;;;;;5060217;28;20666;-81
2022/11/21 04:29:24;;;;;;;1.53;0.83;;;11.10;94.60;;;;;;5057642;28;20217;-78
2022/11/21 04:31:52;;;;;;;2.20;0.93;;;11.10;94.80;;;;;;5065121;28;20269;-81
2022/11/21 04:34:21;;;;;;;1.30;0.90;;;11.00;94.80;;;;;;5070842;28;20191;-81
2022/11/21 04:36:50;;;;;;;2.40;1.03;;;10.90;94.70;;;;;;5067634;28;20203;-81
2022/11/21 04:39:20;;;;;;;1.63;0.80;;;10.90;94.80;;;;;;5070327;28;20215;-81
2022/11/21 04:41:48;;;;;;;1.77;0.80;;;10.90;94.70;;;;;;5069025;28;20241;-81
2022/11/21 04:44:16;;;;;;;3.77;1.17;;;10.80;94.80;;;;;;5064387;28;20202;-79
2022/11/21 04:46:45;;;;;;;2.80;1.10;;;10.90;94.90;;;;;;5062887;28;20203;-80
2022/11/21 04:49:13;;;;;;;2.50;1.10;;;10.90;94.80;;;;;;5065998;28;20530;-81
2022/11/21 04:51:41;;;;;;;2.47;1.40;;;10.90;94.80;;;;;;5066331;28;20190;-78
2022/11/21 04:54:11;;;;;;;1.63;1.00;;;10.90;94.60;;;;;;5071412;28;20186;-81
2022/11/21 04:56:44;;;;;;;2.83;1.33;;;10.90;94.70;;;;;;5062918;28;20643;-81
2022/11/21 04:59:12;;;;;;;2.60;1.40;;;10.90;94.70;;;;;;5064434;28;20596;-80
2022/11/21 05:01:40;;;;;;;4.00;1.10;;;10.90;94.60;;;;;;5066301;28;20281;-81
2022/11/21 05:04:09;;;;;;;2.57;1.13;;;10.90;94.50;;;;;;5067753;28;20207;-81
2022/11/21 05:06:37;;;;;;;1.50;1.00;;;10.90;94.60;;;;;;5065697;28;20294;-81
2022/11/21 05:09:05;;;;;;;2.10;1.20;;;11.00;94.60;;;;;;5065014;28;20778;-79
2022/11/21 05:14:20;;;;;;;3.60;1.20;;;10.90;94.50;;;;;;5063571;28;20256;-81
2022/11/21 05:16:49;;;;;;;2.87;1.00;;;10.90;94.50;;;;;;5058368;28;20194;-85
2022/11/21 05:19:17;;;;;;;1.10;0.80;;;10.90;94.50;;;;;;5061363;28;20207;-81
2022/11/21 05:21:46;;;;;;;3.37;1.10;;;11.00;94.50;;;;;;5072068;28;20548;-82
2022/11/21 05:24:23;;;;;;;2.00;1.00;;;11.00;94.50;;;;;;5086332;28;20579;-82
2022/11/21 05:26:58;;;;;;;1.83;0.87;;;11.00;94.50;;;;;;5084188;28;20202;-81
2022/11/21 05:29:28;;;;;;;1.90;1.10;;;11.10;94.60;;;;;;5080940;28;20277;-83
2022/11/21 05:32:04;;;;;;;1.63;1.00;;;11.10;94.50;;;;;;5085882;28;20193;-79
2022/11/21 05:34:35;;;;;;;3.27;1.07;;;11.10;94.40;;;;;;5085991;28;20193;-81
2022/11/21 05:37:04;;;;;;;1.63;1.00;;;11.10;94.40;;;;;;5085078;28;20232;-82
2022/11/21 05:39:32;;;;;;;1.47;0.90;;;11.10;94.30;;;;;;5083925;28;20335;-77
2022/11/21 05:42:00;;;;;;;2.47;1.30;;;11.10;94.30;;;;;;5084670;28;20219;-80
2022/11/21 05:44:31;;;;;;;1.67;1.23;;;11.00;94.40;;;;;;5084027;28;20209;-80
2022/11/21 05:46:59;;;;;;;1.87;1.00;;;11.10;94.50;;;;;;5077590;28;20250;-78
2022/11/21 05:49:27;;;;;;;2.17;0.90;;;11.10;94.50;;;;;;5084312;28;20198;-80
2022/11/21 05:51:56;;;;;;;2.13;1.30;;;11.10;94.50;;;;;;5085302;28;20205;-81
2022/11/21 05:54:24;;;;;;;2.80;1.07;;;11.20;94.50;;;;;;5085230;28;20218;-81
2022/11/21 05:56:53;;;;;;;2.20;1.10;;;11.20;94.40;;;;;;5084430;28;20246;-80
2022/11/21 05:59:21;;;;;;;1.87;1.13;;;11.20;94.40;;;;;;5080333;28;20201;-80
2022/11/21 06:04:39;;;;;;;1.80;1.10;;;11.20;94.40;;;;;;5087131;28;20283;-80
2022/11/21 06:07:08;;;;;;;1.77;1.10;;;11.30;94.40;;;;;;5083185;28;20189;-82
2022/11/21 06:09:36;;;;;;;2.47;1.20;;;11.30;94.30;;;;;;5082766;28;20201;-80
2022/11/21 06:12:07;;;;;;;2.93;1.20;;;11.30;94.20;;;;;;5082262;28;20204;-81
2022/11/21 06:14:36;;;;;;;2.77;1.30;;;11.30;94.20;;;;;;5095450;28;20242;-82
2022/11/21 06:17:05;;;;;;;2.27;1.33;;;11.30;94.00;;;;;;5095030;28;20197;-79
2022/11/21 06:19:34;;;;;;;3.00;1.43;;;11.30;94.00;;;;;;5088680;28;20268;-78
2022/11/21 06:22:02;;;;;;;3.03;1.77;;;11.30;94.00;;;;;;5089820;28;20942;-78
2022/11/21 06:24:30;;;;;;;1.93;1.27;;;11.40;94.00;;;;;;5094378;28;20229;-81
2022/11/21 06:26:59;;;;;;;3.00;1.87;;;11.30;94.10;;;;;;5093114;28;20243;-80
2022/11/21 06:29:27;;;;;;;4.47;2.00;;;11.40;94.00;;;;;;5092761;28;20285;-79
2022/11/21 06:31:55;;;;;;;3.87;1.50;;;11.40;94.30;;;;;;5093759;28;20226;-81
2022/11/21 06:34:26;;;;;;;4.33;1.80;;;11.30;93.80;;;;;;5091432;28;20334;-81
2022/11/21 06:36:54;;;;;;;2.37;1.30;;;11.30;93.80;;;;;;5092825;28;20220;-80
2022/11/21 06:39:23;;;;;;;1.70;1.20;;;11.30;93.80;;;;;;5091755;28;20649;-82
2022/11/21 06:41:52;;;;;;;4.27;1.77;;;11.30;93.60;;;;;;5089687;28;20210;-81
2022/11/21 06:44:21;;;;;;;2.73;1.53;;;11.30;93.70;;;;;;5092125;28;20214;-80
2022/11/21 06:46:49;;;;;;;3.77;1.63;;;11.30;93.70;;;;;;5090979;28;20210;-78
2022/11/21 06:49:20;;;;;;;3.47;2.10;;;11.30;93.60;;;;;;5081472;28;20226;-81
2022/11/21 06:51:50;;;;;;;3.13;1.60;;;11.30;93.60;;;;;;5090841;28;20193;-80
2022/11/21 06:54:18;;;;;;;3.57;1.93;;;11.30;93.50;;;;;;5090393;28;20190;-79
2022/11/21 06:56:47;;;;;;;3.97;1.90;;;11.40;93.60;;;;;;5087754;28;20236;-79
2022/11/21 06:59:15;;;;;;;3.70;2.20;;;11.40;93.50;;;;;;5090464;28;20228;-82
2022/11/21 07:01:43;;;;;;;4.37;2.00;;;11.30;93.50;;;;;;5092697;28;20202;-79
2022/11/21 07:04:12;;;;;;;4.57;1.97;;;11.40;93.50;;;;;;5079725;28;20230;-79
2022/11/21 07:06:40;;;;;;;3.37;1.97;;;11.40;93.50;;;;;;5087183;28;20227;-80
2022/11/21 07:09:10;;;;;;;4.13;2.20;;;11.40;93.40;;;;;;5087310;28;20194;-78
2022/11/21 07:13:20;;;;;;;3.97;2.10;;;11.40;93.40;;;;;;5089007;28;20633;-78
2022/11/21 07:14:45;;;;;;;5.43;2.00;;;11.50;93.40;;;;;;5092656;28;20250;-80
2022/11/21 07:17:14;;;;;;;4.80;1.73;;;11.50;93.40;;;;;;5091520;28;20319;-79
2022/11/21 07:19:42;;;;;;;3.43;1.67;;;11.40;93.20;;;;;;5084373;28;20562;-79
2022/11/21 07:22:11;;;;;;;3.43;1.80;;;11.50;93.30;;;;;;5088909;28;20225;-82
2022/11/21 07:24:41;;;;;;;4.30;1.60;;;11.50;93.30;;;;;;5089686;28;20221;-82
2022/11/21 07:27:09;;;;;;;4.20;1.97;;;11.40;92.90;;;;;;5092939;28;20201;-79
2022/11/21 07:29:40;;;;;;;3.90;2.10;;;11.30;92.80;;;;;;5090133;28;20190;-82
2022/11/21 07:32:09;;;;;;;6.37;2.70;;;11.30;92.90;;;;;;5083724;28;20190;-81
2022/11/21 07:34:37;;;;;;;4.00;2.10;;;11.30;92.80;;;;;;5083205;28;20251;-78
2022/11/21 07:37:05;;;;;;;5.33;2.10;;;11.30;92.90;;;;;;5079865;28;20202;-80
2022/11/21 07:39:34;;;;;;;5.07;1.87;;;11.30;92.80;;;;;;5086972;28;20210;-80
2022/11/21 07:42:04;;;;;;;4.83;2.10;;;11.30;92.90;;;;;;5087245;28;20234;-82
2022/11/21 07:44:32;;;;;;;5.50;2.53;;;11.30;92.90;;;;;;5086657;28;20210;-81
2022/11/21 07:47:00;;;;;;;3.93;1.90;;;11.40;92.90;;;;;;5081824;28;20197;-86
2022/11/21 07:49:29;;;;;;;3.60;1.90;;;11.30;92.60;;;;;;5078138;28;20244;-84
2022/11/21 07:51:58;;;;;;;4.17;2.10;;;11.30;92.60;;;;;;5079641;28;20229;-84
2022/11/21 07:54:27;;;;;;;5.10;2.17;;;11.30;92.70;;;;;;5083001;28;20820;-80
2022/11/21 07:56:55;;;;;;;4.07;1.73;;;11.20;92.70;;;;;;5084983;28;20194;-79
2022/11/21 07:59:25;;;;;;;4.20;1.80;;;11.30;92.80;;;;;;5090651;28;20190;-85
2022/11/21 08:05:12;;;;;;;5.23;2.07;;;11.20;92.80;;;;;;5087247;28;20665;-85
2022/11/21 08:07:40;;;;;;;4.33;1.93;;;11.20;92.80;;;;;;5089750;28;20194;-82
2022/11/21 08:10:14;;;;;;;5.03;2.27;;;11.30;92.90;;;;;;5087978;28;20206;-85
2022/11/21 08:12:44;;;;;;;5.73;2.03;;;11.30;92.90;;;;;;5067086;28;20641;-81
2022/11/21 08:15:14;;;;;;;4.00;2.00;;;11.30;92.80;;;;;;5087728;28;20604;-80
2022/11/21 08:17:43;;;;;;;4.90;2.40;;;11.30;92.80;;;;;;5083456;28;20194;-79
2022/11/21 08:20:11;;;;;;;4.70;2.67;;;11.30;92.90;;;;;;5087916;28;20243;-78
2022/11/21 08:22:40;;;;;;;3.60;2.33;;;11.30;92.80;;;;;;5091088;28;20232;-78
2022/11/21 08:25:10;;;;;;;5.87;3.03;;;11.30;92.90;;;;;;5083930;28;20242;-77
2022/11/21 08:27:39;;;;;;;5.37;2.10;;;11.30;92.80;;;;;;5089910;28;20197;-79
2022/11/21 08:30:09;;;;;;;5.73;2.27;;;11.30;92.90;;;;;;5085359;28;20691;-79
2022/11/21 08:32:38;;;;;;;4.30;2.40;;;11.30;93.00;;;;;;5082046;28;20740;-81
2022/11/21 08:35:07;;;;;;;4.82;2.72;;;11.30;93.00;;;;;;5082140;28;20976;-81
2022/11/21 08:37:36;;;;;;;3.97;2.43;;;11.40;93.30;;;;;;5087705;28;20243;-81
2022/11/21 08:40:11;;;;;;;5.27;2.23;;;11.40;93.30;;;;;;5087007;28;20234;-79
2022/11/21 08:42:39;;;;;;;5.33;1.80;;;11.50;93.30;;;;;;5085317;28;20197;-80
2022/11/21 08:45:09;;;;;;;4.63;2.47;;;11.50;93.20;;;;;;5081245;28;20218;-79
2022/11/21 08:47:38;;;;;;;6.10;2.93;;;11.50;93.20;;;;;;5087495;28;20255;-78
2022/11/21 08:50:08;;;;;;;3.87;2.30;;;11.50;93.20;;;;;;5082348;28;20251;-78
2022/11/21 08:52:36;;;;;;;3.30;1.80;;;11.60;93.20;;;;;;5084230;28;20654;-78
2022/11/21 08:55:05;;;;;;;5.20;2.37;;;11.60;93.20;;;;;;5083536;28;20252;-79
2022/11/21 08:57:38;;;;;;;4.17;2.37;;;11.60;93.10;;;;;;5083791;28;20198;-78
2022/11/21 09:00:08;;;;;;;8.17;1.93;;;11.60;93.10;;;;;;5077863;28;20644;-79
2022/11/21 09:02:38;;;;;;;4.33;1.80;;;11.60;93.50;;;;;;5085629;28;20189;-78
2022/11/21 09:05:07;;;;;;;3.50;2.00;;;11.70;93.30;;;;;;5081302;28;20205;-78
2022/11/21 09:07:35;;;;;;;7.73;2.70;;;11.70;93.30;;;;;;5084860;28;20186;-78
2022/11/21 09:10:05;;;;;;;4.77;2.63;;;11.80;93.30;;;;;;5083176;28;20250;-78
2022/11/21 09:12:33;;;;;;;6.20;2.23;;;11.80;93.40;;;;;;5088418;28;20190;-80
2022/11/21 09:18:06;;;;;;;5.50;2.97;;;11.80;93.40;;;;;;5058439;28;20255;-79
2022/11/21 09:20:43;;;;;;;8.23;3.03;;;11.90;93.40;;;;;;5076540;28;20193;-79
2022/11/21 09:23:13;;;;;;;5.27;2.50;;;11.90;93.40;;;;;;5083407;28;20192;-80
2022/11/21 09:25:42;;;;;;;5.50;2.90;;;12.00;93.80;;;;;;5085303;28;20201;-79
2022/11/21 09:28:12;;;;;;;5.50;2.60;;;12.00;93.50;;;;;;5085687;28;20197;-79
2022/11/21 09:30:42;;;;;;;3.37;1.83;;;12.10;93.40;;;;;;5082215;28;20202;-79
2022/11/21 09:33:15;;;;;;;3.20;1.90;;;12.10;93.40;;;;;;5084136;28;20440;-77
2022/11/21 09:35:44;;;;;;;2.53;1.60;;;12.10;93.50;;;;;;5084635;28;20280;-80
2022/11/21 09:38:12;;;;;;;3.23;2.00;;;12.10;93.50;;;;;;5085825;28;20206;-79
2022/11/21 09:40:44;;;;;;;3.03;1.73;;;12.10;93.40;;;;;;5086661;28;20193;-78
2022/11/21 09:43:37;;;;;;;4.70;2.07;;;12.00;93.30;;;;;;5084380;28;20198;-79
2022/11/21 09:46:11;;;;;;;6.00;2.50;;;12.00;93.30;;;;;;5082118;28;20202;-79
2022/11/21 09:48:48;;;;;;;3.13;1.90;;;12.00;93.20;;;;;;5087547;28;20315;-78
2022/11/21 09:51:19;;;;;;;4.20;2.17;;;12.00;93.10;;;;;;5082841;28;20221;-77
2022/11/21 09:53:55;;;;;;;3.70;2.00;;;12.00;93.10;;;;;;5082614;28;20726;-77
2022/11/21 09:56:24;;;;;;;5.80;2.40;;;11.90;93.10;;;;;;5083079;28;20186;-79
2022/11/21 09:59:12;;;;;;;4.97;2.77;;;11.90;93.10;;;;;;5083591;28;20243;-78
2022/11/21 10:01:41;;;;;;;4.97;2.60;;;11.90;93.20;;;;;;5078371;28;20654;-79
2022/11/21 10:04:11;;;;;;;6.03;2.87;;;11.90;93.20;;;;;;5089507;28;20202;-79
2022/11/21 10:06:51;;;;;;;5.93;2.70;;;12.00;93.30;;;;;;5084482;28;20247;-79
2022/11/21 10:09:26;;;;;;;5.27;2.83;;;12.00;93.30;;;;;;5085497;28;20201;-79
2022/11/21 10:15:02;;;;;;;8.10;3.73;;;12.00;93.30;;;;;;5086368;28;20720;-79
2022/11/21 10:17:42;;;;;;;6.87;3.80;;;12.00;93.30;;;;;;5081865;28;20195;-78
2022/11/21 10:20:26;;;;;;;7.87;4.13;;;12.00;93.30;;;;;;5087488;28;20228;-79
2022/11/21 10:23:06;;;;;;;7.20;3.43;;;12.10;93.40;;;;;;5080304;28;20269;-78
2022/11/21 10:25:38;;;;;;;8.63;3.67;;;12.10;93.40;;;;;;5086636;28;20201;-78
2022/11/21 10:28:11;;;;;;;6.23;3.30;;;12.10;93.40;;;;;;5081768;28;20252;-78
2022/11/21 10:30:42;;;;;;;7.77;3.30;;;12.10;93.40;;;;;;5085289;28;20213;-78
2022/11/21 10:33:18;;;;;;;5.63;3.40;;;12.10;93.40;;;;;;5080640;28;20273;-78
2022/11/21 10:35:51;;;;;;;5.03;2.93;;;12.10;93.30;;;;;;5082173;28;20214;-79
2022/11/21 10:38:22;;;;;;;5.93;3.33;;;12.00;93.30;;;;;;5079745;28;20190;-78
2022/11/21 10:40:55;;;;;;;6.00;3.50;;;12.00;93.40;;;;;;5082826;28;20193;-79
2022/11/21 10:46:20;;;;;;;7.97;3.07;;;12.00;93.50;;;;;;5085587;28;20268;-79
2022/11/21 10:48:56;;;;;;;7.97;4.17;;;12.00;93.40;;;;;;5081911;28;20600;-80
2022/11/21 10:51:42;;;;;;;10.30;4.17;;;12.00;93.40;;;;;;5086290;28;20239;-81
2022/11/21 10:57:06;;;;;;;6.90;3.47;;;12.00;93.50;;;;;;5093618;28;20600;-79
2022/11/21 10:59:34;;;;;;;6.07;3.37;;;12.00;93.50;;;;;;5090800;28;20243;-81
2022/11/21 11:02:22;;;;;;;6.93;4.10;;;12.00;93.50;;;;;;5086659;28;20820;-81
2022/11/21 11:05:20;;;;;;;6.40;3.60;;;12.00;93.50;;;;;;5088441;28;20185;-79
2022/11/21 11:08:05;;;;;;;6.40;3.57;;;12.00;93.60;;;;;;5092742;28;20403;-80
2022/11/21 11:10:35;;;;;;;6.77;4.13;;;11.90;93.50;;;;;;5090617;28;20597;-80
2022/11/21 11:16:19;;;;;;;8.17;4.33;;;11.90;94.00;;;;;;5086476;28;20202;-79
2022/11/21 11:18:55;;;;;;;6.87;4.33;;;11.90;93.70;;;;;;5092989;28;20212;-80
2022/11/21 11:21:25;;;;;;;12.30;4.20;;;11.90;93.70;;;;;;5088860;28;20225;-80
2022/11/21 11:24:08;;;;;;;6.70;4.17;;;11.90;93.80;;;;;;5083265;28;20260;-79
2022/11/21 11:26:51;;;;;;;8.53;4.27;;;11.90;93.80;;;;;;5092007;28;20237;-81
2022/11/21 11:29:21;;;;;;;9.47;4.33;;;12.00;94.00;;;;;;5089561;28;20193;-80
2022/11/21 11:31:55;;;;;;;8.70;4.53;;;12.00;94.00;;;;;;5083061;28;20202;-81
2022/11/21 11:34:26;;;;;;;8.63;4.00;;;12.00;94.00;;;;;;5085725;28;20251;-81
2022/11/21 11:36:58;;;;;;;7.33;4.90;;;12.10;94.10;;;;;;5087181;28;20205;-80
2022/11/21 11:39:38;;;;;;;7.83;3.77;;;12.10;94.00;;;;;;5089634;28;20247;-77
2022/11/21 11:48:46;;;;;;;6.63;3.87;;;12.10;94.10;;;;;;5086497;28;20244;-79
2022/11/21 11:51:39;;;;;;;8.17;4.90;;;12.10;94.20;;;;;;5084827;28;20347;-78
2022/11/21 11:54:13;;;;;;;8.63;4.53;;;12.10;94.10;;;;;;5086709;28;20601;-80
2022/11/21 11:56:43;;;;;;;9.70;4.70;;;12.10;94.30;;;;;;5086470;28;20225;-81
2022/11/21 11:59:18;;;;;;;11.60;4.37;;;12.10;94.70;;;;;;5087213;28;20224;-81
2022/11/21 12:01:51;;;;;;;9.40;5.10;;;12.10;94.30;;;;;;5084068;28;20193;-79
2022/11/21 12:04:22;;;;;;;8.00;4.23;;;12.10;94.30;;;;;;5082512;28;20258;-81
2022/11/21 12:06:55;;;;;;;8.98;5.20;;;12.10;94.40;;;;;;5088180;28;20526;-83
2022/11/21 12:09:52;;;;;;;7.60;4.47;;;12.10;94.70;;;;;;5090463;28;20201;-79
2022/11/21 12:12:31;;;;;;;12.10;5.57;;;12.10;94.70;;;;;;5088791;28;20205;-80
2022/11/21 12:18:08;;;;;;;9.37;4.80;;;12.10;95.00;;;;;;5084285;28;20569;-79
2022/11/21 12:20:46;;;;;;;10.40;5.30;;;12.10;95.00;;;;;;5085751;28;20270;-81
2022/11/21 12:23:15;;;;;;;7.63;4.27;;;12.10;95.10;;;;;;5085890;28;20259;-80
2022/11/21 12:26:00;;;;;;;10.60;4.80;;;12.00;95.20;;;;;;5084933;28;20202;-80
2022/11/21 12:28:39;;;;;;;9.63;4.80;;;12.00;95.20;;;;;;5082636;28;20194;-79
2022/11/21 12:31:14;;;;;;;6.43;4.50;;;12.10;95.30;;;;;;5086079;28;20718;-80
2022/11/21 12:33:50;;;;;;;13.13;5.20;;;12.10;95.30;;;;;;5086945;28;20600;-80
2022/11/21 12:36:28;;;;;;;10.10;5.40;;;12.10;95.40;;;;;;5085431;28;20643;-81
2022/11/21 12:39:37;;;;;;;8.03;4.93;;;12.10;95.50;;;;;;5085799;28;20190;-81
2022/11/21 12:45:26;;;;;;;10.27;5.73;;;12.00;96.00;;;;;;5083273;28;20198;-82
2022/11/21 12:54:47;;;;;;;9.37;4.03;;;12.00;96.60;;;;;;5081520;28;20234;-80
2022/11/21 12:57:18;;;;;;;9.43;5.07;;;12.00;97.00;;;;;;5088699;28;20434;-81
2022/11/21 12:59:59;;;;;;;10.53;5.40;;;11.90;97.00;;;;;;5087162;28;20198;-79
2022/11/21 13:02:39;;;;;;;9.53;5.03;;;12.00;97.10;;;;;;5084095;28;20226;-76
2022/11/21 13:05:12;;;;;;;9.67;5.10;;;12.00;97.30;;;;;;5081942;28;20228;-76
2022/11/21 13:07:41;;;;;;;7.73;4.80;;;12.00;97.60;;;;;;5082118;28;20217;-80
2022/11/21 13:10:15;;;;;;;8.27;5.10;;;12.00;98.00;;;;;;5086818;28;20608;-79
2022/11/21 13:12:47;;;;;;;7.13;4.43;;;12.10;97.90;;;;;;5081429;28;20285;-78
2022/11/21 13:15:26;;;;;;;6.17;4.43;;;12.10;98.00;;;;;;5073001;28;20292;-84
2022/11/21 13:17:59;;;;;;;5.33;4.20;;;12.20;98.00;;;;;;5076827;28;20612;-79
2022/11/21 13:20:33;;;;;;;6.03;4.20;;;12.20;98.00;;;;;;5083170;28;20221;-81
2022/11/21 13:23:05;;;;;;;4.53;3.40;;;12.20;97.60;;;;;;5085845;28;20447;-79
2022/11/21 13:25:39;;;;;;;5.90;3.53;;;12.30;97.50;;;;;;5080075;28;20198;-77
2022/11/21 13:28:37;;;;;;;3.43;2.70;;;12.30;97.30;;;;;;5085268;28;20256;-87
2022/11/21 13:31:31;;;;;;;3.60;2.90;;;12.30;96.70;;;;;;5023158;28;20211;-80
2022/11/21 13:34:01;;;;;;;4.20;3.00;;;12.30;96.70;;;;;;5082587;28;20236;-77
2022/11/21 13:36:40;;;;;;;3.90;3.03;;;12.40;96.60;;;;;;5085576;28;20220;-77
2022/11/21 13:39:36;;;;;;;3.97;2.67;;;12.40;96.30;;;;;;5084035;28;20436;-79
2022/11/21 13:44:59;;;;;;;3.43;2.40;;;12.40;95.70;;;;;;5083278;28;20194;-78
2022/11/21 13:48:04;;;;;;;2.50;2.27;;;12.40;95.60;;;;;;5088639;28;20217;-78
2022/11/21 13:51:02;;;;;;;4.07;2.70;;;12.40;95.40;;;;;;5063508;28;20610;-77
2022/11/21 13:54:03;;;;;;;3.77;2.93;;;12.40;95.40;;;;;;5086913;28;20208;-79
2022/11/21 13:56:39;;;;;;;3.53;2.70;;;12.40;95.40;;;;;;5082643;28;20562;-79